createdAt,value
2019-03-27T00:00:43.770Z,0.00
2019-03-27T00:01:39.340Z,0.00
2019-03-27T00:02:39.338Z,0.00
2019-03-27T00:03:39.344Z,0.00
2019-03-27T00:06:14.579Z,0.00
2019-03-27T00:07:11.084Z,0.00
2019-03-27T00:08:11.085Z,0.00
2019-03-27T00:09:32.584Z,0.00
2019-03-27T00:10:11.582Z,0.00
2019-03-27T00:11:16.351Z,0.00
2019-03-27T00:12:11.584Z,0.00
2019-03-27T00:13:12.084Z,0.00
2019-03-27T00:15:43.442Z,0.00
2019-03-27T00:16:47.453Z,0.00
2019-03-27T00:17:43.459Z,0.00
2019-03-27T00:18:43.957Z,0.00
2019-03-27T00:19:43.948Z,0.00
2019-03-27T00:20:46.883Z,0.00
2019-03-27T00:21:43.956Z,0.00
2019-03-27T00:22:48.450Z,0.00
2019-03-27T00:23:44.449Z,0.00
2019-03-27T00:25:05.445Z,0.00
2019-03-27T00:25:44.454Z,0.00
2019-03-27T00:26:44.948Z,0.00
2019-03-27T00:27:46.392Z,0.00
2019-03-27T00:28:48.448Z,0.00
2019-03-27T00:29:44.959Z,0.00
2019-03-27T00:30:44.948Z,0.00
2019-03-27T00:32:06.449Z,0.00
2019-03-27T00:32:45.448Z,0.00
2019-03-27T00:34:10.448Z,0.00
2019-03-27T00:34:45.447Z,0.00
2019-03-27T00:35:45.948Z,0.00
2019-03-27T00:36:45.947Z,0.00
2019-03-27T00:37:45.948Z,0.00
2019-03-27T00:38:45.947Z,0.00
2019-03-27T00:39:49.447Z,0.00
2019-03-27T00:40:46.449Z,0.00
2019-03-27T00:41:47.388Z,0.00
2019-03-27T00:42:46.451Z,0.00
2019-03-27T00:43:46.948Z,0.00
2019-03-27T00:44:50.446Z,0.00
2019-03-27T00:45:46.953Z,0.00
2019-03-27T00:46:46.949Z,0.00
2019-03-27T00:47:49.452Z,0.00
2019-03-27T00:48:47.452Z,0.00
2019-03-27T00:49:47.454Z,0.00
2019-03-27T00:50:51.457Z,0.00
2019-03-27T00:51:47.947Z,0.00
2019-03-27T00:52:47.947Z,0.00
2019-03-27T00:53:47.947Z,0.00
2019-03-27T00:54:48.076Z,0.00
2019-03-27T00:55:48.441Z,0.00
2019-03-27T00:56:51.446Z,0.00
2019-03-27T00:57:48.446Z,0.00
2019-03-27T00:58:48.446Z,0.00
2019-03-27T00:59:48.946Z,0.00
2019-03-27T01:00:48.946Z,0.00
2019-03-27T01:01:52.455Z,0.00
2019-03-27T01:02:48.946Z,0.00
2019-03-27T01:03:49.442Z,0.00
2019-03-27T01:04:49.445Z,0.00
2019-03-27T01:05:49.452Z,0.00
2019-03-27T01:06:50.965Z,0.00
2019-03-27T01:07:55.445Z,0.00
2019-03-27T01:08:49.953Z,0.00
2019-03-27T01:09:49.954Z,0.00
2019-03-27T01:10:49.945Z,0.00
2019-03-27T01:11:52.445Z,0.00
2019-03-27T01:12:50.445Z,0.00
2019-03-27T01:13:53.445Z,0.00
2019-03-27T01:15:11.452Z,0.00
2019-03-27T01:15:50.945Z,0.00
2019-03-27T01:16:50.945Z,0.00
2019-03-27T01:17:50.945Z,0.00
2019-03-27T01:18:54.951Z,0.00
2019-03-27T01:19:51.449Z,0.00
2019-03-27T01:20:51.445Z,0.00
2019-03-27T01:21:51.511Z,0.00
2019-03-27T01:22:51.445Z,0.00
2019-03-27T01:23:51.445Z,0.00
2019-03-27T01:24:55.944Z,0.00
2019-03-27T01:25:51.950Z,0.00
2019-03-27T01:26:51.944Z,0.00
2019-03-27T01:27:51.946Z,0.00
2019-03-27T01:28:52.447Z,0.00
2019-03-27T01:29:52.479Z,0.00
2019-03-27T01:30:55.947Z,0.00
2019-03-27T01:31:52.447Z,0.00
2019-03-27T01:32:52.946Z,0.00
2019-03-27T01:33:52.946Z,0.00
2019-03-27T01:34:52.944Z,0.00
2019-03-27T01:35:56.943Z,0.00
2019-03-27T01:36:53.444Z,0.00
2019-03-27T01:37:53.444Z,0.00
2019-03-27T01:38:53.445Z,0.00
2019-03-27T01:39:53.444Z,0.00
2019-03-27T01:40:54.896Z,0.00
2019-03-27T01:41:56.943Z,0.00
2019-03-27T01:42:53.946Z,0.00
2019-03-27T01:43:53.943Z,0.00
2019-03-27T01:44:53.945Z,0.00
2019-03-27T01:45:54.448Z,0.00
2019-03-27T01:46:57.944Z,0.00
2019-03-27T01:47:54.444Z,0.00
2019-03-27T01:48:54.443Z,0.00
2019-03-27T01:51:26.181Z,0.00
2019-03-27T01:52:29.683Z,0.00
2019-03-27T01:53:26.186Z,0.00
2019-03-27T01:54:47.683Z,0.00
2019-03-27T01:55:26.683Z,0.00
2019-03-27T01:56:26.683Z,0.00
2019-03-27T01:57:30.684Z,0.00
2019-03-27T01:58:27.183Z,0.00
2019-03-27T01:59:28.626Z,0.00
2019-03-27T02:00:27.185Z,0.00
2019-03-27T02:01:27.183Z,0.00
2019-03-27T02:02:27.196Z,0.00
2019-03-27T02:03:30.691Z,0.00
2019-03-27T02:04:27.681Z,0.00
2019-03-27T02:05:27.684Z,0.00
2019-03-27T02:06:27.682Z,0.00
2019-03-27T02:07:28.195Z,0.00
2019-03-27T02:08:32.193Z,0.00
2019-03-27T02:09:28.204Z,0.00
2019-03-27T02:10:28.182Z,0.00
2019-03-27T02:11:28.685Z,0.00
2019-03-27T02:12:28.692Z,0.00
2019-03-27T02:13:28.682Z,0.00
2019-03-27T02:14:32.189Z,0.00
2019-03-27T02:15:29.182Z,0.00
2019-03-27T02:16:29.187Z,0.00
2019-03-27T02:17:29.179Z,0.00
2019-03-27T02:18:29.198Z,0.00
2019-03-27T02:19:33.184Z,0.00
2019-03-27T02:20:50.681Z,0.00
2019-03-27T02:21:29.681Z,0.00
2019-03-27T02:22:31.682Z,0.00
2019-03-27T02:23:30.181Z,0.00
2019-03-27T02:24:33.182Z,0.00
2019-03-27T02:25:30.181Z,0.00
2019-03-27T02:26:30.181Z,0.00
2019-03-27T02:27:30.684Z,0.00
2019-03-27T02:28:51.681Z,0.00
2019-03-27T02:29:55.182Z,0.00
2019-03-27T02:30:30.682Z,0.00
2019-03-27T02:31:52.235Z,0.00
2019-03-27T02:32:31.188Z,0.00
2019-03-27T02:33:31.186Z,0.00
2019-03-27T02:34:31.182Z,0.00
2019-03-27T02:35:35.185Z,0.00
2019-03-27T02:36:31.683Z,0.00
2019-03-27T02:37:31.694Z,0.00
2019-03-27T02:38:31.682Z,0.00
2019-03-27T02:39:31.689Z,0.00
2019-03-27T02:40:32.181Z,0.00
2019-03-27T02:41:35.187Z,0.00
2019-03-27T02:42:32.188Z,0.00
2019-03-27T02:43:32.202Z,0.00
2019-03-27T02:44:32.682Z,0.00
2019-03-27T02:45:32.686Z,0.00
2019-03-27T02:46:36.685Z,0.00
2019-03-27T02:47:32.680Z,0.00
2019-03-27T02:48:33.187Z,0.00
2019-03-27T02:49:33.181Z,0.00
2019-03-27T02:50:34.160Z,0.00
2019-03-27T02:51:33.183Z,0.00
2019-03-27T02:52:58.681Z,0.00
2019-03-27T02:53:33.680Z,0.00
2019-03-27T02:54:33.682Z,0.00
2019-03-27T02:55:33.681Z,0.00
2019-03-27T02:56:34.184Z,0.00
2019-03-27T02:57:34.180Z,0.00
2019-03-27T02:58:37.681Z,0.00
2019-03-27T02:59:34.185Z,0.00
2019-03-27T03:00:34.679Z,0.00
2019-03-27T03:01:34.679Z,0.00
2019-03-27T03:02:34.702Z,0.00
2019-03-27T03:03:38.686Z,0.00
2019-03-27T03:04:56.178Z,0.00
2019-03-27T03:05:56.181Z,0.00
2019-03-27T03:06:35.181Z,0.00
2019-03-27T03:07:35.179Z,0.00
2019-03-27T03:08:35.699Z,0.00
2019-03-27T03:09:38.679Z,0.00
2019-03-27T03:10:35.680Z,0.00
2019-03-27T03:11:35.679Z,0.00
2019-03-27T03:12:36.208Z,0.00
2019-03-27T03:13:57.199Z,0.00
2019-03-27T03:14:39.698Z,0.00
2019-03-27T03:15:36.184Z,0.00
2019-03-27T03:16:42.518Z,0.00
2019-03-27T03:17:37.617Z,0.00
2019-03-27T03:18:36.680Z,0.00
2019-03-27T03:19:36.684Z,0.00
2019-03-27T03:20:40.683Z,0.00
2019-03-27T03:23:29.907Z,0.00
2019-03-27T03:24:29.925Z,0.00
2019-03-27T03:25:08.921Z,0.00
2019-03-27T03:26:12.429Z,0.00
2019-03-27T03:27:11.416Z,0.00
2019-03-27T03:28:32.416Z,0.00
2019-03-27T03:29:31.872Z,0.00
2019-03-27T03:30:09.419Z,0.00
2019-03-27T03:31:13.441Z,0.00
2019-03-27T03:33:41.296Z,0.00
2019-03-27T03:34:41.289Z,0.00
2019-03-27T03:35:41.283Z,0.00
2019-03-27T03:36:45.280Z,0.00
2019-03-27T03:37:41.778Z,0.00
2019-03-27T03:38:41.779Z,0.00
2019-03-27T03:39:41.779Z,0.00
2019-03-27T03:40:42.278Z,0.00
2019-03-27T03:41:42.279Z,0.00
2019-03-27T03:42:46.297Z,0.00
2019-03-27T03:43:42.374Z,0.00
2019-03-27T03:45:03.789Z,0.00
2019-03-27T03:45:42.779Z,0.00
2019-03-27T03:46:58.902Z,0.00
2019-03-27T03:47:42.786Z,0.00
2019-03-27T03:48:46.278Z,0.00
2019-03-27T03:49:43.279Z,0.00
2019-03-27T03:50:43.297Z,0.00
2019-03-27T03:51:43.303Z,0.00
2019-03-27T03:52:45.857Z,0.00
2019-03-27T03:53:47.302Z,0.00
2019-03-27T03:54:43.775Z,0.00
2019-03-27T03:55:43.778Z,0.00
2019-03-27T03:56:44.281Z,0.00
2019-03-27T03:57:44.287Z,0.00
2019-03-27T03:58:44.278Z,0.00
2019-03-27T03:59:48.399Z,0.00
2019-03-27T04:01:05.776Z,0.00
2019-03-27T04:01:44.777Z,0.00
2019-03-27T04:02:44.780Z,0.00
2019-03-27T04:03:44.783Z,0.00
2019-03-27T04:04:45.276Z,0.00
2019-03-27T04:05:48.288Z,0.00
2019-03-27T04:06:45.276Z,0.00
2019-03-27T04:07:45.282Z,0.00
2019-03-27T04:08:45.781Z,0.00
2019-03-27T04:09:45.774Z,0.00
2019-03-27T04:10:49.282Z,0.00
2019-03-27T04:11:45.777Z,0.00
2019-03-27T04:12:46.277Z,0.00
2019-03-27T04:14:07.275Z,0.00
2019-03-27T04:14:46.278Z,0.00
2019-03-27T04:15:46.277Z,0.00
2019-03-27T04:16:50.334Z,0.00
2019-03-27T04:17:46.796Z,0.00
2019-03-27T04:18:46.779Z,0.00
2019-03-27T04:19:48.212Z,0.00
2019-03-27T04:20:46.776Z,0.00
2019-03-27T04:22:11.775Z,0.00
2019-03-27T04:22:47.277Z,0.00
2019-03-27T04:23:47.278Z,0.00
2019-03-27T04:24:47.283Z,0.00
2019-03-27T04:26:08.420Z,0.00
2019-03-27T04:26:47.776Z,0.00
2019-03-27T04:27:51.776Z,0.00
2019-03-27T04:28:47.808Z,0.00
2019-03-27T04:29:48.271Z,0.00
2019-03-27T04:30:48.275Z,0.00
2019-03-27T04:31:48.276Z,0.00
2019-03-27T04:32:48.275Z,0.00
2019-03-27T04:34:13.775Z,0.00
2019-03-27T04:34:48.775Z,0.00
2019-03-27T04:35:48.776Z,0.00
2019-03-27T04:36:48.784Z,0.00
2019-03-27T04:37:49.282Z,0.00
2019-03-27T04:38:49.274Z,0.00
2019-03-27T04:39:54.862Z,0.00
2019-03-27T04:40:49.275Z,0.00
2019-03-27T04:41:49.776Z,0.00
2019-03-27T04:42:49.773Z,0.00
2019-03-27T04:43:49.775Z,4.00
2019-03-27T04:44:53.779Z,0.00
2019-03-27T04:45:50.274Z,4.00
2019-03-27T04:46:50.273Z,4.00
2019-03-27T04:47:50.276Z,4.00
2019-03-27T04:48:50.328Z,4.00
2019-03-27T04:49:50.776Z,4.00
2019-03-27T04:50:53.779Z,4.00
2019-03-27T04:51:53.215Z,4.00
2019-03-27T04:52:50.777Z,8.00
2019-03-27T04:53:50.770Z,8.00
2019-03-27T04:56:26.504Z,16.00
2019-03-27T04:57:22.513Z,20.00
2019-03-27T04:58:22.592Z,20.00
2019-03-27T04:59:23.023Z,28.00
2019-03-27T05:01:57.872Z,36.00
2019-03-27T05:02:54.383Z,44.00
2019-03-27T05:04:15.382Z,52.00
2019-03-27T05:05:15.881Z,60.00
2019-03-27T05:05:54.889Z,64.00
2019-03-27T05:06:54.881Z,72.00
2019-03-27T05:07:58.882Z,84.00
2019-03-27T05:09:16.413Z,92.00
2019-03-27T05:10:16.385Z,104.00
2019-03-27T05:10:55.381Z,112.00
2019-03-27T05:11:55.383Z,120.00
2019-03-27T05:12:55.381Z,136.00
2019-03-27T05:13:58.879Z,148.00
2019-03-27T05:16:29.240Z,180.00
2019-03-27T05:17:27.245Z,196.00
2019-03-27T05:18:27.253Z,208.00
2019-03-27T05:19:31.747Z,224.00
2019-03-27T05:20:48.745Z,240.00
2019-03-27T05:21:27.745Z,256.00
2019-03-27T05:22:27.745Z,276.00
2019-03-27T05:23:28.249Z,296.00
2019-03-27T05:24:28.244Z,316.00
2019-03-27T05:25:31.245Z,332.00
2019-03-27T05:26:28.244Z,348.00
2019-03-27T05:27:28.755Z,360.00
2019-03-27T05:28:28.755Z,376.00
2019-03-27T05:29:30.226Z,384.00
2019-03-27T05:30:32.744Z,400.00
2019-03-27T05:31:29.244Z,416.00
2019-03-27T05:32:29.244Z,436.00
2019-03-27T05:33:32.454Z,452.00
2019-03-27T05:34:29.280Z,468.00
2019-03-27T05:35:30.725Z,484.00
2019-03-27T05:38:25.036Z,528.00
2019-03-27T05:39:04.051Z,544.00
2019-03-27T05:40:04.046Z,564.00
2019-03-27T05:41:04.545Z,588.00
2019-03-27T05:42:08.049Z,620.00
2019-03-27T05:43:04.546Z,648.00
2019-03-27T05:44:04.548Z,692.00
2019-03-27T05:45:05.045Z,740.00
2019-03-27T05:46:05.046Z,780.00
2019-03-27T05:47:05.045Z,816.00
2019-03-27T05:48:09.045Z,860.00
2019-03-27T05:49:05.544Z,868.00
2019-03-27T05:50:05.545Z,868.00
2019-03-27T05:51:05.544Z,876.00
2019-03-27T05:52:05.549Z,864.00
2019-03-27T05:53:06.043Z,856.00
2019-03-27T05:54:09.041Z,844.00
2019-03-27T05:55:06.057Z,832.00
2019-03-27T05:56:06.046Z,820.00
2019-03-27T05:57:06.544Z,820.00
2019-03-27T05:58:06.542Z,816.00
2019-03-27T06:00:41.782Z,816.00
2019-03-27T06:01:41.791Z,824.00
2019-03-27T06:02:41.797Z,828.00
2019-03-27T06:03:42.294Z,840.00
2019-03-27T06:04:45.790Z,852.00
2019-03-27T06:05:42.290Z,868.00
2019-03-27T06:06:42.290Z,880.00
2019-03-27T06:07:42.794Z,892.00
2019-03-27T06:08:42.789Z,900.00
2019-03-27T06:09:42.789Z,912.00
2019-03-27T06:10:46.791Z,924.00
2019-03-27T06:11:43.297Z,944.00
2019-03-27T06:12:43.298Z,960.00
2019-03-27T06:13:43.288Z,968.00
2019-03-27T06:14:43.289Z,984.00
2019-03-27T06:15:45.322Z,996.00
2019-03-27T06:16:46.791Z,1000.00
2019-03-27T06:17:43.791Z,1024.00
2019-03-27T06:18:43.792Z,1088.00
2019-03-27T06:19:44.289Z,1140.00
2019-03-27T06:20:44.288Z,1196.00
2019-03-27T06:21:48.290Z,1248.00
2019-03-27T06:22:44.294Z,1300.00
2019-03-27T06:23:45.723Z,1360.00
2019-03-27T06:25:05.800Z,1428.00
2019-03-27T06:25:44.787Z,1500.00
2019-03-27T06:26:48.292Z,1556.00
2019-03-27T06:27:46.243Z,1604.00
2019-03-27T06:28:45.288Z,1640.00
2019-03-27T06:29:45.287Z,1664.00
2019-03-27T06:30:45.288Z,1680.00
2019-03-27T06:31:49.288Z,1692.00
2019-03-27T06:32:45.786Z,1720.00
2019-03-27T06:33:45.789Z,1764.00
2019-03-27T06:34:45.790Z,1836.00
2019-03-27T06:35:45.787Z,1920.00
2019-03-27T06:36:46.287Z,2012.00
2019-03-27T06:37:49.288Z,2096.00
2019-03-27T06:38:46.291Z,2108.00
2019-03-27T06:39:46.286Z,2120.00
2019-03-27T06:40:46.787Z,2164.00
2019-03-27T06:41:46.787Z,2192.00
2019-03-27T06:42:52.792Z,2184.00
2019-03-27T06:43:46.786Z,2104.00
2019-03-27T06:44:47.286Z,1992.00
2019-03-27T06:45:47.287Z,1916.00
2019-03-27T06:46:47.289Z,1852.00
2019-03-27T06:47:47.291Z,1808.00
2019-03-27T06:48:51.791Z,1752.00
2019-03-27T06:49:49.720Z,1700.00
2019-03-27T06:50:47.121Z,1660.00
2019-03-27T06:51:47.785Z,1628.00
2019-03-27T06:52:47.786Z,1612.00
2019-03-27T06:53:48.286Z,1584.00
2019-03-27T06:56:43.988Z,1560.00
2019-03-27T06:57:22.994Z,1568.00
2019-03-27T06:58:23.001Z,1588.00
2019-03-27T06:59:23.505Z,1608.00
2019-03-27T07:00:26.997Z,1636.00
2019-03-27T07:01:23.567Z,1676.00
2019-03-27T07:02:23.499Z,1732.00
2019-03-27T07:06:30.163Z,1924.00
2019-03-27T07:07:28.658Z,1952.00
2019-03-27T07:09:58.390Z,2120.00
2019-03-27T07:10:58.399Z,2196.00
2019-03-27T07:13:33.711Z,2224.00
2019-03-27T07:14:33.720Z,2184.00
2019-03-27T07:15:35.751Z,2148.00
2019-03-27T07:18:09.957Z,2064.00
2019-03-27T07:19:05.463Z,2076.00
2019-03-27T07:20:05.460Z,2116.00
2019-03-27T07:21:05.960Z,2168.00
2019-03-27T07:22:05.176Z,2216.00
2019-03-27T07:23:05.963Z,2256.00
2019-03-27T07:24:09.958Z,2248.00
2019-03-27T07:25:06.462Z,2228.00
2019-03-27T07:29:13.256Z,2220.00
2019-03-27T07:30:09.266Z,2216.00
2019-03-27T07:31:09.264Z,2212.00
2019-03-27T07:32:09.771Z,2196.00
2019-03-27T07:33:32.221Z,2180.00
2019-03-27T07:34:13.270Z,2160.00
2019-03-27T07:35:09.114Z,2148.00
2019-03-27T07:36:10.698Z,2128.00
2019-03-27T07:37:10.263Z,2120.00
2019-03-27T07:38:10.275Z,2096.00
2019-03-27T07:39:14.267Z,2080.00
2019-03-27T07:40:10.263Z,2064.00
2019-03-27T07:41:12.200Z,2068.00
2019-03-27T07:42:10.769Z,2084.00
2019-03-27T07:43:10.774Z,2112.00
2019-03-27T07:44:10.763Z,2156.00
2019-03-27T07:45:36.197Z,2228.00
2019-03-27T07:46:11.280Z,2332.00
2019-03-27T07:47:11.263Z,2456.00
2019-03-27T07:48:11.261Z,2568.00
2019-03-27T07:49:13.763Z,2644.00
2019-03-27T07:50:36.770Z,2684.00
2019-03-27T07:51:11.762Z,2696.00
2019-03-27T07:52:11.763Z,2704.00
2019-03-27T07:53:12.263Z,2704.00
2019-03-27T07:54:12.275Z,2664.00
2019-03-27T07:55:19.667Z,2644.00
2019-03-27T07:58:07.986Z,2604.00
2019-03-27T07:58:46.993Z,2644.00
2019-03-27T07:59:46.584Z,2680.00
2019-03-27T08:00:46.673Z,2688.00
2019-03-27T08:02:11.995Z,2652.00
2019-03-27T08:02:47.494Z,2600.00
2019-03-27T08:03:47.495Z,2568.00
2019-03-27T08:06:19.228Z,2548.00
2019-03-27T08:07:26.981Z,2552.00
2019-03-27T08:08:19.234Z,2548.00
2019-03-27T08:09:22.924Z,2544.00
2019-03-27T08:10:19.735Z,2556.00
2019-03-27T08:11:19.806Z,2572.00
2019-03-27T08:12:19.734Z,2612.00
2019-03-27T08:13:23.734Z,2676.00
2019-03-27T08:14:20.233Z,2784.00
2019-03-27T08:15:20.235Z,2900.00
2019-03-27T08:16:20.235Z,3020.00
2019-03-27T08:17:20.743Z,3124.00
2019-03-27T08:18:20.738Z,3208.00
2019-03-27T08:19:24.733Z,3292.00
2019-03-27T08:20:20.733Z,3368.00
2019-03-27T08:22:52.494Z,3452.00
2019-03-27T08:23:52.478Z,3420.00
2019-03-27T08:24:56.475Z,3372.00
2019-03-27T08:25:54.413Z,3324.00
2019-03-27T08:26:52.975Z,3260.00
2019-03-27T08:27:52.975Z,3192.00
2019-03-27T08:28:52.977Z,3120.00
2019-03-27T08:29:53.475Z,3068.00
2019-03-27T08:30:57.477Z,3072.00
2019-03-27T08:31:53.477Z,3124.00
2019-03-27T08:32:53.474Z,3160.00
2019-03-27T08:33:53.973Z,3172.00
2019-03-27T08:35:15.943Z,3172.00
2019-03-27T08:35:53.293Z,3188.00
2019-03-27T08:36:57.486Z,3236.00
2019-03-27T08:37:53.975Z,3332.00
2019-03-27T08:38:54.488Z,3404.00
2019-03-27T08:41:25.869Z,3692.00
2019-03-27T08:42:28.863Z,3832.00
2019-03-27T08:43:46.852Z,3996.00
2019-03-27T08:44:26.351Z,4100.00
2019-03-27T08:45:26.354Z,4164.00
2019-03-27T08:46:26.351Z,4216.00
2019-03-27T08:47:53.354Z,4220.00
2019-03-27T08:48:48.807Z,4228.00
2019-03-27T08:49:47.850Z,4236.00
2019-03-27T08:50:49.856Z,4264.00
2019-03-27T08:51:26.851Z,4316.00
2019-03-27T08:52:28.284Z,4384.00
2019-03-27T08:53:53.358Z,4404.00
2019-03-27T08:54:48.350Z,4464.00
2019-03-27T08:55:31.291Z,4440.00
2019-03-27T08:56:27.350Z,4432.00
2019-03-27T08:59:02.036Z,4604.00
2019-03-27T08:59:59.093Z,4676.00
2019-03-27T09:00:59.092Z,4724.00
2019-03-27T09:02:01.593Z,4820.00
2019-03-27T09:06:05.758Z,5248.00
2019-03-27T09:07:05.764Z,5424.00
2019-03-27T09:08:06.264Z,5604.00
2019-03-27T09:09:06.266Z,5808.00
2019-03-27T09:11:41.416Z,6140.00
2019-03-27T09:12:41.420Z,6212.00
2019-03-27T09:13:41.932Z,6332.00
2019-03-27T09:14:41.923Z,6388.00
2019-03-27T09:15:45.453Z,6432.00
2019-03-27T09:16:41.921Z,6504.00
2019-03-27T09:17:42.422Z,6596.00
2019-03-27T09:19:03.422Z,6644.00
2019-03-27T09:19:42.425Z,6684.00
2019-03-27T09:21:06.926Z,6712.00
2019-03-27T09:22:03.924Z,6676.00
2019-03-27T09:22:42.921Z,6520.00
2019-03-27T09:23:45.572Z,6344.00
2019-03-27T09:24:42.939Z,6224.00
2019-03-27T09:25:42.526Z,6124.00
2019-03-27T09:27:07.931Z,6056.00
2019-03-27T09:27:43.431Z,6080.00
2019-03-27T09:30:15.033Z,6244.00
2019-03-27T09:31:44.822Z,6420.00
2019-03-27T09:33:49.770Z,6568.00
2019-03-27T09:34:49.777Z,6616.00
2019-03-27T09:35:49.824Z,6596.00
2019-03-27T09:36:52.280Z,6632.00
2019-03-27T09:37:53.778Z,6736.00
2019-03-27T09:38:50.278Z,6808.00
2019-03-27T09:39:50.277Z,6820.00
2019-03-27T09:42:22.013Z,7104.00
2019-03-27T09:43:25.604Z,7204.00
2019-03-27T09:44:22.528Z,7240.00
2019-03-27T09:45:22.522Z,7304.00
2019-03-27T09:46:22.528Z,7380.00
2019-03-27T09:47:22.524Z,7416.00
2019-03-27T09:48:26.521Z,7544.00
2019-03-27T09:49:23.020Z,7784.00
2019-03-27T09:50:23.022Z,7788.00
2019-03-27T09:51:23.018Z,7752.00
2019-03-27T09:52:44.522Z,7756.00
2019-03-27T09:53:28.043Z,7784.00
2019-03-27T09:54:23.534Z,7748.00
2019-03-27T09:55:23.547Z,7676.00
2019-03-27T09:56:24.021Z,7616.00
2019-03-27T09:57:24.019Z,7592.00
2019-03-27T09:58:24.024Z,7708.00
2019-03-27T09:59:28.023Z,7908.00
2019-03-27T10:00:38.520Z,8172.00
2019-03-27T10:01:24.525Z,8216.00
2019-03-27T10:02:45.520Z,8004.00
2019-03-27T10:03:23.994Z,8152.00
2019-03-27T10:04:49.520Z,8564.00
2019-03-27T10:05:25.020Z,8952.00
2019-03-27T10:06:25.020Z,9572.00
2019-03-27T10:07:25.020Z,9912.00
2019-03-27T10:08:46.520Z,10020.00
2019-03-27T10:09:25.520Z,9760.00
2019-03-27T10:10:29.023Z,9416.00
2019-03-27T10:11:25.520Z,9196.00
2019-03-27T10:12:47.020Z,9148.00
2019-03-27T10:13:26.019Z,9396.00
2019-03-27T10:14:47.714Z,9456.00
2019-03-27T10:15:29.020Z,9696.00
2019-03-27T10:16:47.522Z,9860.00
2019-03-27T10:17:26.522Z,10084.00
2019-03-27T10:18:26.520Z,9864.00
2019-03-27T10:19:26.526Z,9564.00
2019-03-27T10:20:53.552Z,9288.00
2019-03-27T10:21:27.041Z,8680.00
2019-03-27T10:22:48.031Z,8236.00
2019-03-27T10:23:27.017Z,7888.00
2019-03-27T10:24:27.520Z,8392.00
2019-03-27T10:27:08.911Z,10184.00
2019-03-27T10:28:02.911Z,10904.00
2019-03-27T10:29:03.415Z,11692.00
2019-03-27T10:30:03.413Z,12176.00
2019-03-27T10:31:06.912Z,13156.00
2019-03-27T10:32:03.420Z,13464.00
2019-03-27T10:33:24.911Z,12724.00
2019-03-27T10:34:03.912Z,11908.00
2019-03-27T10:35:03.912Z,11396.00
2019-03-27T10:37:38.701Z,11948.00
2019-03-27T10:38:41.522Z,12436.00
2019-03-27T10:39:38.178Z,12576.00
2019-03-27T10:40:38.270Z,12500.00
2019-03-27T10:41:44.142Z,13232.00
2019-03-27T10:43:00.212Z,11764.00
2019-03-27T10:43:39.208Z,12076.00
2019-03-27T10:44:39.211Z,12584.00
2019-03-27T10:46:00.718Z,13504.00
2019-03-27T10:46:40.671Z,13924.00
2019-03-27T10:49:14.890Z,13368.00
2019-03-27T10:50:17.943Z,13660.00
2019-03-27T10:52:50.146Z,15380.00
2019-03-27T10:53:46.645Z,15060.00
2019-03-27T10:54:46.643Z,15256.00
2019-03-27T10:55:47.143Z,14892.00
2019-03-27T10:56:47.142Z,14800.00
2019-03-27T10:57:47.144Z,14352.00
2019-03-27T10:58:51.143Z,13220.00
2019-03-27T10:59:47.641Z,11768.00
2019-03-27T11:00:47.643Z,10600.00
2019-03-27T11:01:47.689Z,9512.00
2019-03-27T11:02:47.643Z,8528.00
2019-03-27T11:03:47.644Z,7972.00
2019-03-27T11:04:50.142Z,7876.00
2019-03-27T11:05:48.153Z,7840.00
2019-03-27T11:06:48.142Z,8260.00
2019-03-27T11:07:48.144Z,9232.00
2019-03-27T11:09:11.122Z,9724.00
2019-03-27T11:09:52.142Z,10032.00
2019-03-27T11:10:48.641Z,10204.00
2019-03-27T11:11:48.643Z,9668.00
2019-03-27T11:12:49.146Z,9360.00
2019-03-27T11:13:49.170Z,10044.00
2019-03-27T11:14:49.143Z,10396.00
2019-03-27T11:15:53.160Z,9852.00
2019-03-27T11:16:49.643Z,7764.00
2019-03-27T11:17:49.644Z,8060.00
2019-03-27T11:18:49.644Z,9036.00
2019-03-27T11:19:49.644Z,8792.00
2019-03-27T11:21:04.142Z,7496.00
2019-03-27T11:21:53.141Z,7080.00
2019-03-27T11:22:50.142Z,6900.00
2019-03-27T11:23:50.162Z,6824.00
2019-03-27T11:24:50.644Z,6984.00
2019-03-27T11:27:26.012Z,7600.00
2019-03-27T11:28:22.023Z,8324.00
2019-03-27T11:30:55.760Z,8084.00
2019-03-27T11:31:53.767Z,8472.00
2019-03-27T11:32:57.267Z,9176.00
2019-03-27T11:34:15.272Z,9896.00
2019-03-27T11:35:15.267Z,11008.00
2019-03-27T11:35:54.267Z,13472.00
2019-03-27T11:36:53.736Z,13956.00
2019-03-27T11:38:00.228Z,14548.00
2019-03-27T11:38:54.777Z,16544.00
2019-03-27T11:39:54.769Z,17600.00
2019-03-27T11:41:15.767Z,14268.00
2019-03-27T11:43:30.010Z,11300.00
2019-03-27T11:44:47.523Z,10532.00
2019-03-27T11:45:26.527Z,10388.00
2019-03-27T11:47:58.277Z,12004.00
2019-03-27T11:49:01.776Z,13868.00
2019-03-27T11:51:29.895Z,19264.00
2019-03-27T11:52:30.018Z,19520.00
2019-03-27T11:53:30.411Z,20160.00
2019-03-27T11:56:05.831Z,31456.00
2019-03-27T11:57:05.911Z,37824.00
2019-03-27T11:58:05.837Z,45216.00
2019-03-27T11:59:06.353Z,20832.00
2019-03-27T12:00:09.843Z,11744.00
2019-03-27T12:01:05.688Z,11084.00
2019-03-27T12:02:06.331Z,11348.00
2019-03-27T12:03:06.840Z,11448.00
2019-03-27T12:04:27.909Z,11980.00
2019-03-27T12:05:06.840Z,12544.00
2019-03-27T12:06:10.844Z,14364.00
2019-03-27T12:07:07.336Z,16376.00
2019-03-27T12:09:50.297Z,20544.00
2019-03-27T12:10:50.207Z,28064.00
2019-03-27T12:11:53.814Z,37120.00
2019-03-27T12:12:49.662Z,89600.00
2019-03-27T12:13:50.759Z,60640.00
2019-03-27T12:14:50.784Z,113280.00
2019-03-27T12:15:56.684Z,86144.00
2019-03-27T12:16:50.769Z,97472.00
2019-03-27T12:17:54.932Z,86368.00
2019-03-27T12:18:50.737Z,120352.00
2019-03-27T12:22:57.896Z,23008.00
2019-03-27T12:23:31.063Z,62784.00
2019-03-27T12:24:31.063Z,111680.00
2019-03-27T12:25:31.063Z,20928.00
2019-03-27T12:26:31.569Z,20608.00
2019-03-27T12:27:31.563Z,20352.00
2019-03-27T12:28:39.565Z,20256.00
2019-03-27T12:29:31.565Z,20416.00
2019-03-27T12:30:38.063Z,17280.00
2019-03-27T12:33:24.451Z,15448.00
2019-03-27T12:34:07.455Z,15340.00
2019-03-27T12:35:03.953Z,15428.00
2019-03-27T12:37:56.331Z,19520.00
2019-03-27T12:38:57.772Z,22144.00
2019-03-27T12:39:40.764Z,51648.00
2019-03-27T12:40:56.844Z,51232.00
2019-03-27T12:43:07.726Z,97472.00
2019-03-27T12:44:11.858Z,100480.00
2019-03-27T12:45:11.229Z,100832.00
2019-03-27T12:46:08.226Z,99328.00
2019-03-27T12:47:08.230Z,95584.00
2019-03-27T12:48:08.233Z,95520.00
2019-03-27T12:49:08.227Z,102304.00
2019-03-27T12:50:15.665Z,110080.00
2019-03-27T12:51:12.973Z,111072.00
2019-03-27T12:52:08.732Z,104352.00
2019-03-27T12:53:08.733Z,88224.00
2019-03-27T12:54:09.226Z,88896.00
2019-03-27T12:55:09.231Z,94784.00
2019-03-27T12:56:12.773Z,94016.00
2019-03-27T12:57:09.226Z,102016.00
2019-03-27T12:58:11.788Z,100320.00
2019-03-27T12:59:30.727Z,106112.00
2019-03-27T13:00:09.122Z,111840.00
2019-03-27T13:02:45.211Z,93920.00
2019-03-27T13:03:45.215Z,84288.00
2019-03-27T13:04:45.777Z,36032.00
2019-03-27T13:07:20.612Z,40864.00
2019-03-27T13:08:17.619Z,37184.00
2019-03-27T13:09:19.050Z,18080.00
2019-03-27T13:10:20.049Z,16780.00
2019-03-27T13:11:18.124Z,17184.00
2019-03-27T13:12:43.121Z,17312.00
2019-03-27T13:13:18.139Z,22400.00
2019-03-27T13:14:39.119Z,74400.00
2019-03-27T13:15:18.617Z,90016.00
2019-03-27T13:16:18.627Z,85408.00
2019-03-27T13:17:18.619Z,82592.00
2019-03-27T13:18:22.116Z,83424.00
2019-03-27T13:19:19.143Z,75904.00
2019-03-27T13:20:19.118Z,81792.00
2019-03-27T13:21:26.130Z,83680.00
2019-03-27T13:22:18.599Z,72192.00
2019-03-27T13:23:23.125Z,79584.00
2019-03-27T13:24:19.617Z,78688.00
2019-03-27T13:25:40.618Z,74016.00
2019-03-27T13:26:20.594Z,74656.00
2019-03-27T13:28:54.865Z,32352.00
2019-03-27T13:29:51.372Z,61056.00
2019-03-27T13:30:51.367Z,40896.00
2019-03-27T13:32:12.866Z,48512.00
2019-03-27T13:32:51.868Z,69120.00
2019-03-27T13:33:55.867Z,71200.00
2019-03-27T13:35:12.872Z,73600.00
2019-03-27T13:36:13.367Z,83200.00
2019-03-27T13:37:13.369Z,70816.00
2019-03-27T13:38:13.399Z,19744.00
2019-03-27T13:38:52.367Z,13992.00
2019-03-27T13:39:55.867Z,13176.00
2019-03-27T13:42:45.261Z,12008.00
2019-03-27T13:43:24.341Z,9948.00
2019-03-27T13:44:36.433Z,9456.00
2019-03-27T13:45:28.764Z,9692.00
2019-03-27T13:46:24.768Z,10448.00